Weather History for KF05 - July, 2012

Change the Weather History Date:

Wednesday, July 25, 2012

  Actual Average (KLTS) Record (KLTS)
Temperature  
Mean Temperature 94 °F -  
Max Temperature 106 °F 96 °F 109 °F (2011)
Min Temperature 82 °F 71 °F 66 °F (2007)
Cooling Degree Days 29    
Growing Degree Days 44 (Base 50)    
Moisture  
Dew Point 58 °F    
Average Humidity 32    
Maximum Humidity 51    
Minimum Humidity 16    
Precipitation  
Precipitation 0.00 in - - ()
Sea Level Pressure  
Sea Level Pressure 29.83 in    
Wind  
Wind Speed 17 mph (South)    
Max Wind Speed 24 mph    
Max Gust Speed 31 mph    
Visibility 10 miles    
Events      
Averages and records for this station are not official NWS values.
T = Trace of Precipitation, MM = Missing Value Source: NWS Daily Summary

Daily Weather History Graph

Daily Weather History Graph

Search for Another Location

Airport or City:

Trip Planner

Search our weather history database for the weather conditions in past years. The results will help you decide how hot, cold, wet, or windy it might be!

Date:

Astronomy

Jul. 25, 2012 Rise Set
Actual Time 6:43 AM CDT 8:43 PM CDT
Civil Twilight 6:15 AM CDT 9:11 PM CDT
Nautical Twilight 5:41 AM CDT 9:45 PM CDT
Astronomical Twilight 5:05 AM CDT 10:21 PM CDT
Moon 1:27 PM CDT (7/25) No Moon Set
Length of Visible Light 14h 55m
Length of Day
13h 59m
Waxing Crescent, 42% of the Moon is Illuminated
Jul 25
Waxing Crescent
Jul 26
First Quarter
Aug 1
Full
Aug 9
Last Quarter
Aug 17
New

Hourly Weather History & Observations

Time (CDT) Temp. Heat Index Dew Point Humidity Pressure Visibility Wind Dir Wind Speed Gust Speed Precip Events Conditions
12:15 AM 89.2 °F 89.0 °F 60.8 °F 38% 29.89 in 10.0 mi South 15.0 mph - N/A   Clear
12:35 AM 88.9 °F 88.8 °F 60.8 °F 39% 29.89 in 10.0 mi South 17.3 mph - N/A   Clear
12:55 AM 88.7 °F 88.6 °F 61.0 °F 39% 29.89 in 10.0 mi South 16.1 mph - N/A   Clear
1:15 AM 88.3 °F 88.4 °F 61.0 °F 40% 29.89 in 10.0 mi South 17.3 mph 23.0 mph N/A   Clear
1:35 AM 88.2 °F 88.1 °F 61.2 °F 40% 29.89 in 10.0 mi South 19.6 mph 24.2 mph N/A   Clear
1:55 AM 88.0 °F 88.1 °F 61.3 °F 41% 29.89 in 10.0 mi South 20.7 mph 26.5 mph N/A   Clear
2:15 AM 87.6 °F 87.7 °F 61.5 °F 41% 29.89 in 10.0 mi South 17.3 mph 23.0 mph N/A   Clear
2:35 AM 86.9 °F 87.0 °F 61.5 °F 42% 29.89 in 10.0 mi South 16.1 mph 25.3 mph N/A   Clear
2:55 AM 86.4 °F 86.5 °F 61.7 °F 43% 29.89 in 10.0 mi South 18.4 mph 21.9 mph N/A   Clear
3:15 AM 86.2 °F 86.3 °F 61.3 °F 43% 29.89 in 10.0 mi South 18.4 mph - N/A   Clear
3:35 AM 86.0 °F 86.1 °F 61.2 °F 43% 29.89 in 10.0 mi South 17.3 mph - N/A   Clear
3:55 AM 85.8 °F 85.9 °F 61.2 °F 43% 29.89 in 10.0 mi South 17.3 mph 23.0 mph N/A   Clear
4:15 AM 85.5 °F 85.7 °F 61.2 °F 44% 29.88 in 10.0 mi South 17.3 mph - N/A   Clear
4:35 AM 85.3 °F 85.7 °F 61.5 °F 45% 29.89 in 10.0 mi South 16.1 mph - N/A   Clear
4:55 AM 84.7 °F 85.2 °F 61.7 °F 46% 29.89 in 10.0 mi South 17.3 mph 21.9 mph N/A   Clear
5:15 AM 84.2 °F 84.8 °F 61.9 °F 47% 29.89 in 10.0 mi South 15.0 mph - N/A   Clear
5:35 AM 83.7 °F 84.3 °F 61.9 °F 48% 29.89 in 10.0 mi South 12.7 mph - N/A   Clear
5:55 AM 83.1 °F 83.9 °F 62.2 °F 49% 29.90 in 10.0 mi South 12.7 mph - N/A   Clear
6:15 AM 82.9 °F 83.8 °F 62.4 °F 50% 29.90 in 10.0 mi South 12.7 mph - N/A   Clear
7:15 AM 83.1 °F 84.2 °F 63.3 °F 51% 29.90 in 10.0 mi SSW 12.7 mph - N/A   Clear
7:55 AM 84.0 °F 85.4 °F 64.0 °F 51% 29.91 in 10.0 mi SSW 16.1 mph - N/A   Clear
8:15 AM 84.9 °F 86.3 °F 64.4 °F 50% 29.91 in 10.0 mi SSW 15.0 mph - N/A   Clear
8:35 AM 86.0 °F 87.3 °F 64.4 °F 48% 29.91 in 10.0 mi SSW 16.1 mph 21.9 mph N/A   Clear
8:55 AM 87.3 °F 88.6 °F 64.2 °F 46% 29.91 in 10.0 mi SW 21.9 mph 27.6 mph N/A   Clear
9:15 AM 88.9 °F 90.0 °F 63.7 °F 43% 29.90 in 10.0 mi SSW 24.2 mph 29.9 mph N/A   Clear
9:35 AM 90.1 °F 90.9 °F 63.1 °F 40% 29.91 in 10.0 mi SSW 23.0 mph 31.1 mph N/A   Clear
9:55 AM 91.2 °F 92.2 °F 62.8 °F 39% 29.91 in 10.0 mi SSW 24.2 mph 29.9 mph N/A   Clear
10:35 AM 93.6 °F 94.2 °F 62.4 °F 35% 29.90 in 10.0 mi SSW 23.0 mph 27.6 mph N/A   Clear
10:55 AM 94.5 °F 95.2 °F 62.4 °F 34% 29.89 in 10.0 mi SSW 17.3 mph - N/A   Clear
11:15 AM 95.2 °F 95.9 °F 62.2 °F 33% 29.88 in 10.0 mi SSW 19.6 mph 26.5 mph N/A   Clear
11:55 AM 97.3 °F 98.4 °F 62.1 °F 31% 29.87 in 10.0 mi SSW 18.4 mph 27.6 mph N/A   Clear
12:15 PM 98.6 °F 99.4 °F 61.5 °F 29% 29.87 in 10.0 mi SSW 15.0 mph 26.5 mph N/A   Clear
12:35 PM 100.0 °F 101.2 °F 61.3 °F 28% 29.86 in 10.0 mi SSW 15.0 mph 21.9 mph N/A   Clear
12:55 PM 100.9 °F 102.1 °F 60.8 °F 27% 29.85 in 10.0 mi SSW 13.8 mph 23.0 mph N/A   Clear
1:15 PM 101.7 °F 101.6 °F 58.5 °F 24% 29.84 in 10.0 mi SSW 17.3 mph 25.3 mph N/A   Clear
1:35 PM 102.2 °F 101.9 °F 57.4 °F 23% 29.84 in 10.0 mi SSW 16.1 mph 25.3 mph N/A   Clear
1:55 PM 103.3 °F 102.4 °F 56.5 °F 21% 29.83 in 10.0 mi SSW 18.4 mph 26.5 mph N/A   Clear
2:15 PM 104.2 °F 103.7 °F 56.7 °F 21% 29.82 in 10.0 mi South 20.7 mph 27.6 mph N/A   Clear
2:35 PM 104.0 °F 102.9 °F 55.0 °F 20% 29.81 in 10.0 mi South 17.3 mph 26.5 mph N/A   Clear
2:55 PM 105.1 °F 103.3 °F 53.6 °F 18% 29.81 in 10.0 mi SSW 17.3 mph 29.9 mph N/A   Clear
3:15 PM 105.1 °F 103.3 °F 53.8 °F 18% 29.80 in 10.0 mi SSE 16.1 mph 26.5 mph N/A   Clear
3:35 PM 105.6 °F 104.0 °F 53.4 °F 18% 29.80 in 10.0 mi South 18.4 mph 27.6 mph N/A   Clear
3:55 PM 105.6 °F - 52.9 °F 17% 29.79 in 10.0 mi South 20.7 mph 27.6 mph N/A   Scattered Clouds
4:15 PM 106.3 °F - 52.9 °F 17% 29.78 in 10.0 mi South 17.3 mph 26.5 mph N/A   Clear
4:35 PM 106.5 °F - 52.5 °F 17% 29.78 in 10.0 mi SSW 17.3 mph 31.1 mph N/A   Clear
4:55 PM 106.2 °F - 52.7 °F 17% 29.77 in 10.0 mi South 20.7 mph 26.5 mph N/A   Scattered Clouds
5:15 PM 106.7 °F - 52.5 °F 17% 29.76 in 10.0 mi South 19.6 mph 25.3 mph N/A   Scattered Clouds
5:35 PM 106.2 °F - 52.2 °F 17% 29.75 in 10.0 mi South 15.0 mph 24.2 mph N/A   Scattered Clouds
5:55 PM 106.0 °F - 51.8 °F 16% 29.75 in 10.0 mi South 13.8 mph 23.0 mph N/A   Scattered Clouds
6:15 PM 105.6 °F - 51.6 °F 17% 29.73 in 10.0 mi South 10.4 mph 18.4 mph N/A   Clear
6:35 PM 105.1 °F - 52.9 °F 18% 29.72 in 10.0 mi SSE 23.0 mph 26.5 mph N/A   Clear
6:55 PM 104.2 °F 102.6 °F 54.0 °F 19% 29.72 in 10.0 mi South 23.0 mph - N/A   Clear
7:15 PM 103.3 °F 101.9 °F 54.3 °F 20% 29.72 in 10.0 mi SSE 18.4 mph 26.5 mph N/A   Clear
7:35 PM 102.4 °F 100.6 °F 54.3 °F 20% 29.72 in 10.0 mi South 19.6 mph 24.2 mph N/A   Clear
7:55 PM 100.4 °F 98.8 °F 54.5 °F 22% 29.74 in 10.0 mi South 16.1 mph 20.7 mph N/A   Clear
8:15 PM 99.3 °F 97.4 °F 54.5 °F 22% 29.74 in 10.0 mi South 13.8 mph 17.3 mph N/A   Clear
8:35 PM 98.4 °F 96.5 °F 54.7 °F 23% 29.74 in 10.0 mi SSE 16.1 mph - N/A   Clear
8:55 PM 97.7 °F 95.9 °F 54.9 °F 24% 29.75 in 10.0 mi SSE 16.1 mph - N/A   Clear
9:15 PM 97.0 °F 95.0 °F 55.0 °F 24% 29.75 in 10.0 mi SSE 13.8 mph - N/A   Clear
9:55 PM 95.7 °F 93.7 °F 55.0 °F 25% 29.76 in 10.0 mi SSE 13.8 mph - N/A   Clear
10:15 PM 95.0 °F 93.0 °F 55.0 °F 26% 29.77 in 10.0 mi SSE 13.8 mph - N/A   Clear
10:35 PM 94.5 °F 92.3 °F 54.7 °F 26% 29.77 in 10.0 mi SSE 15.0 mph - N/A   Clear
10:55 PM 94.1 °F 91.9 °F 54.7 °F 26% 29.78 in 10.0 mi SSE 17.3 mph - N/A   Clear
11:15 PM 93.6 °F 91.5 °F 54.9 °F 27% 29.78 in 10.0 mi SSE 17.3 mph 24.2 mph N/A   Clear
11:35 PM 92.8 °F 90.9 °F 55.4 °F 28% 29.79 in 10.0 mi SSE 15.0 mph 21.9 mph N/A   Clear
11:55 PM 92.3 °F 90.7 °F 56.3 °F 30% 29.80 in 10.0 mi South 17.3 mph - N/A   Clear